PGT1191 LTFJ-LGAV
Flight info
| Callsign | PGT1191 |
|---|---|
| Flight time | 1h 6m |
| Altitude | 36000 |
| Route | IVGUS1J/06L IVGUS UY226 BIG UN604 OGSIL |
| Aircraft | A320/M-SDE3FGHIRWY/LB1 |
Departure
| Time | 2026-04-30 20:33 |
|---|---|
| Airport | Istanbul Sabiha Gökçen International Airport (LTFJ) |
Arrival
| Time | 2026-04-30 21:40 |
|---|---|
| Airport | Athens Eleftherios Venizelos International Airport (LGAV) |
| Time | Latitude | Longitude | Altitude | Speed | Heading |
|---|---|---|---|---|---|
| 2026-04-30 20:00 | 40.90612 | 29.31572 | 310 ft | 0 kts | 334° |
| 2026-04-30 20:21 | 40.90609 | 29.31574 | 311 ft | 3 kts | 334° |
| 2026-04-30 20:21 | 40.90585 | 29.31590 | 311 ft | 4 kts | 332° |
| 2026-04-30 20:21 | 40.90562 | 29.31608 | 311 ft | 4 kts | 327° |
| 2026-04-30 20:22 | 40.90540 | 29.31629 | 310 ft | 4 kts | 311° |
| 2026-04-30 20:22 | 40.90530 | 29.31654 | 310 ft | 3 kts | 251° |
| 2026-04-30 20:22 | 40.90531 | 29.31659 | 310 ft | 0 kts | 244° |
| 2026-04-30 20:25 | 40.90522 | 29.31633 | 310 ft | 9 kts | 244° |
| 2026-04-30 20:25 | 40.90495 | 29.31560 | 310 ft | 5 kts | 244° |
| 2026-04-30 20:26 | 40.90463 | 29.31471 | 311 ft | 8 kts | 244° |
| 2026-04-30 20:26 | 40.90353 | 29.31473 | 311 ft | 11 kts | 154° |
| 2026-04-30 20:26 | 40.90280 | 29.31489 | 311 ft | 14 kts | 215° |
| 2026-04-30 20:27 | 40.90182 | 29.31236 | 311 ft | 15 kts | 244° |
| 2026-04-30 20:27 | 40.90101 | 29.31016 | 311 ft | 12 kts | 244° |
| 2026-04-30 20:28 | 40.90027 | 29.30817 | 311 ft | 12 kts | 244° |
| 2026-04-30 20:28 | 40.89947 | 29.30600 | 310 ft | 18 kts | 244° |
| 2026-04-30 20:29 | 40.89844 | 29.30319 | 313 ft | 16 kts | 244° |
| 2026-04-30 20:30 | 40.89693 | 29.29910 | 307 ft | 21 kts | 243° |
| 2026-04-30 20:30 | 40.89507 | 29.29404 | 304 ft | 19 kts | 244° |
| 2026-04-30 20:31 | 40.89300 | 29.29314 | 302 ft | 12 kts | 148° |
| 2026-04-30 20:32 | 40.89299 | 29.29412 | 304 ft | 1 kts | 64° |
| 2026-04-30 20:32 | 40.89649 | 29.30363 | 310 ft | 122 kts | 64° |
| 2026-04-30 20:33 | 40.90076 | 29.31542 | 579 ft | 149 kts | 63° |
| 2026-04-30 20:33 | 40.90953 | 29.33979 | 2133 ft | 145 kts | 61° |
| 2026-04-30 20:33 | 40.91441 | 29.35248 | 2571 ft | 166 kts | 62° |
| 2026-04-30 20:34 | 40.92580 | 29.38308 | 3284 ft | 208 kts | 63° |
| 2026-04-30 20:34 | 40.93407 | 29.42325 | 4271 ft | 251 kts | 103° |
| 2026-04-30 20:35 | 40.92538 | 29.44399 | 4894 ft | 270 kts | 137° |
| 2026-04-30 20:35 | 40.90948 | 29.45740 | 5761 ft | 273 kts | 157° |
| 2026-04-30 20:35 | 40.87345 | 29.47445 | 7676 ft | 276 kts | 166° |
| 2026-04-30 20:36 | 40.85509 | 29.48229 | 8636 ft | 276 kts | 172° |
| 2026-04-30 20:36 | 40.83637 | 29.48171 | 9539 ft | 269 kts | 199° |
| 2026-04-30 20:36 | 40.80496 | 29.45488 | 10793 ft | 288 kts | 223° |
| 2026-04-30 20:37 | 40.78956 | 29.43633 | 11122 ft | 309 kts | 224° |
| 2026-04-30 20:37 | 40.77382 | 29.41694 | 11797 ft | 316 kts | 224° |
| 2026-04-30 20:37 | 40.75768 | 29.39700 | 12586 ft | 320 kts | 224° |
| 2026-04-30 20:37 | 40.74129 | 29.37683 | 13370 ft | 324 kts | 224° |
| 2026-04-30 20:38 | 40.72531 | 29.35559 | 14107 ft | 327 kts | 232° |
| 2026-04-30 20:38 | 40.71380 | 29.32974 | 14781 ft | 331 kts | 247° |
| 2026-04-30 20:38 | 40.70817 | 29.30017 | 15468 ft | 336 kts | 262° |
| 2026-04-30 20:39 | 40.71608 | 29.23865 | 16864 ft | 349 kts | 283° |
| 2026-04-30 20:39 | 40.72355 | 29.20812 | 17586 ft | 350 kts | 283° |
| 2026-04-30 20:39 | 40.73104 | 29.17746 | 18274 ft | 352 kts | 283° |
| 2026-04-30 20:40 | 40.74609 | 29.11549 | 19463 ft | 356 kts | 283° |
| 2026-04-30 20:40 | 40.75362 | 29.08424 | 20021 ft | 359 kts | 283° |
| 2026-04-30 20:40 | 40.76109 | 29.05313 | 20576 ft | 361 kts | 283° |
| 2026-04-30 20:41 | 40.77194 | 28.98856 | 21669 ft | 361 kts | 272° |
| 2026-04-30 20:41 | 40.77382 | 28.95541 | 22205 ft | 364 kts | 271° |
| 2026-04-30 20:41 | 40.77574 | 28.92190 | 22733 ft | 367 kts | 272° |
| 2026-04-30 20:41 | 40.77702 | 28.89956 | 23103 ft | 370 kts | 272° |
| 2026-04-30 20:42 | 40.77894 | 28.86552 | 23654 ft | 373 kts | 272° |
| 2026-04-30 20:42 | 40.78153 | 28.81996 | 24324 ft | 377 kts | 272° |
| 2026-04-30 20:42 | 40.78552 | 28.75066 | 25379 ft | 381 kts | 272° |
| 2026-04-30 20:43 | 40.78690 | 28.72705 | 25688 ft | 382 kts | 272° |
| 2026-04-30 20:43 | 40.78894 | 28.69198 | 26128 ft | 384 kts | 272° |
| 2026-04-30 20:43 | 40.79092 | 28.65725 | 26549 ft | 385 kts | 272° |
| 2026-04-30 20:44 | 40.79413 | 28.58639 | 27366 ft | 387 kts | 267° |
| 2026-04-30 20:44 | 40.79292 | 28.55083 | 27744 ft | 389 kts | 266° |
| 2026-04-30 20:44 | 40.79036 | 28.47924 | 28526 ft | 392 kts | 266° |
| 2026-04-30 20:45 | 40.78775 | 28.40705 | 29236 ft | 396 kts | 266° |
| 2026-04-30 20:45 | 40.78645 | 28.37079 | 29584 ft | 397 kts | 266° |
| 2026-04-30 20:45 | 40.78513 | 28.33432 | 29979 ft | 399 kts | 266° |
| 2026-04-30 20:46 | 40.78273 | 28.22363 | 30763 ft | 405 kts | 271° |
| 2026-04-30 20:46 | 40.78403 | 28.18654 | 31146 ft | 404 kts | 271° |
| 2026-04-30 20:47 | 40.78658 | 28.11335 | 31947 ft | 400 kts | 271° |
| 2026-04-30 20:47 | 40.78782 | 28.07672 | 32347 ft | 399 kts | 271° |
| 2026-04-30 20:48 | 40.79021 | 28.00404 | 33244 ft | 394 kts | 270° |
| 2026-04-30 20:48 | 40.79139 | 27.96802 | 33665 ft | 392 kts | 270° |
| 2026-04-30 20:48 | 40.79252 | 27.93216 | 34075 ft | 390 kts | 270° |
| 2026-04-30 20:48 | 40.79362 | 27.89642 | 34418 ft | 389 kts | 270° |
| 2026-04-30 20:49 | 40.79466 | 27.86071 | 34725 ft | 389 kts | 270° |
| 2026-04-30 20:49 | 40.79499 | 27.82500 | 35000 ft | 389 kts | 265° |
| 2026-04-30 20:49 | 40.79030 | 27.78994 | 35247 ft | 389 kts | 253° |
| 2026-04-30 20:50 | 40.76341 | 27.72776 | 35710 ft | 399 kts | 231° |
| 2026-04-30 20:50 | 40.74229 | 27.70357 | 35888 ft | 408 kts | 219° |
| 2026-04-30 20:50 | 40.71744 | 27.68463 | 36043 ft | 414 kts | 214° |
| 2026-04-30 20:51 | 40.66660 | 27.64799 | 36098 ft | 416 kts | 214° |
| 2026-04-30 20:51 | 40.59059 | 27.59351 | 36097 ft | 416 kts | 214° |
| 2026-04-30 20:52 | 40.53975 | 27.55659 | 36098 ft | 417 kts | 214° |
| 2026-04-30 20:53 | 40.46425 | 27.49968 | 36095 ft | 417 kts | 215° |
| 2026-04-30 20:53 | 40.41392 | 27.46185 | 36079 ft | 417 kts | 215° |
| 2026-04-30 20:54 | 40.33814 | 27.40541 | 36083 ft | 418 kts | 214° |
| 2026-04-30 20:55 | 40.26364 | 27.34636 | 36084 ft | 415 kts | 220° |
| 2026-04-30 20:55 | 40.21649 | 27.30280 | 36066 ft | 416 kts | 219° |
| 2026-04-30 20:56 | 40.14578 | 27.23774 | 36078 ft | 416 kts | 219° |
| 2026-04-30 20:57 | 40.07471 | 27.17230 | 36069 ft | 417 kts | 219° |
| 2026-04-30 20:57 | 40.02730 | 27.12871 | 36060 ft | 417 kts | 219° |
| 2026-04-30 20:58 | 39.95607 | 27.06340 | 36062 ft | 417 kts | 219° |
| 2026-04-30 20:58 | 39.90854 | 27.01989 | 36042 ft | 418 kts | 219° |
| 2026-04-30 20:59 | 39.83725 | 26.95494 | 36029 ft | 419 kts | 219° |
| 2026-04-30 21:00 | 39.74157 | 26.86811 | 36015 ft | 420 kts | 219° |
| 2026-04-30 21:01 | 39.66963 | 26.80294 | 36019 ft | 420 kts | 219° |
| 2026-04-30 21:02 | 39.59759 | 26.73782 | 36019 ft | 421 kts | 219° |
| 2026-04-30 21:02 | 39.54983 | 26.69471 | 36014 ft | 420 kts | 219° |
| 2026-04-30 21:03 | 39.50178 | 26.65148 | 36006 ft | 420 kts | 219° |
| 2026-04-30 21:03 | 39.45345 | 26.60806 | 36012 ft | 421 kts | 219° |
| 2026-04-30 21:04 | 39.40564 | 26.56521 | 35992 ft | 421 kts | 219° |
| 2026-04-30 21:04 | 39.33313 | 26.50055 | 36003 ft | 423 kts | 217° |
| 2026-04-30 21:05 | 39.28176 | 26.46231 | 35992 ft | 425 kts | 214° |
| 2026-04-30 21:05 | 39.23274 | 26.42153 | 35985 ft | 418 kts | 225° |
| 2026-04-30 21:06 | 39.19452 | 26.36602 | 35993 ft | 413 kts | 234° |
| 2026-04-30 21:06 | 39.15853 | 26.30813 | 35983 ft | 414 kts | 234° |
| 2026-04-30 21:07 | 39.12235 | 26.25038 | 36010 ft | 414 kts | 234° |
| 2026-04-30 21:07 | 39.08609 | 26.19257 | 35986 ft | 414 kts | 234° |
| 2026-04-30 21:08 | 39.04985 | 26.13487 | 35992 ft | 415 kts | 234° |
| 2026-04-30 21:08 | 39.01354 | 26.07718 | 35991 ft | 415 kts | 234° |
| 2026-04-30 21:09 | 38.97727 | 26.01950 | 35997 ft | 415 kts | 234° |
| 2026-04-30 21:09 | 38.94114 | 25.96218 | 35983 ft | 415 kts | 234° |
| 2026-04-30 21:10 | 38.90469 | 25.90450 | 35991 ft | 415 kts | 234° |
| 2026-04-30 21:10 | 38.86826 | 25.84699 | 36003 ft | 416 kts | 234° |
| 2026-04-30 21:11 | 38.83196 | 25.78961 | 36007 ft | 415 kts | 234° |
| 2026-04-30 21:11 | 38.79552 | 25.73209 | 35991 ft | 416 kts | 234° |
| 2026-04-30 21:12 | 38.75907 | 25.67470 | 35994 ft | 416 kts | 234° |
| 2026-04-30 21:12 | 38.72244 | 25.61720 | 36020 ft | 417 kts | 234° |
| 2026-04-30 21:13 | 38.68577 | 25.55977 | 36024 ft | 416 kts | 234° |
| 2026-04-30 21:13 | 38.64902 | 25.50245 | 36004 ft | 417 kts | 234° |
| 2026-04-30 21:14 | 38.61229 | 25.44503 | 36008 ft | 417 kts | 234° |
| 2026-04-30 21:14 | 38.57542 | 25.38759 | 36018 ft | 418 kts | 234° |
| 2026-04-30 21:15 | 38.53847 | 25.33015 | 36023 ft | 418 kts | 234° |
| 2026-04-30 21:15 | 38.50149 | 25.27270 | 36011 ft | 419 kts | 234° |
| 2026-04-30 21:16 | 38.46442 | 25.21524 | 36024 ft | 420 kts | 234° |
| 2026-04-30 21:16 | 38.42724 | 25.15762 | 36024 ft | 420 kts | 234° |
| 2026-04-30 21:17 | 38.38993 | 25.10016 | 36036 ft | 421 kts | 234° |
| 2026-04-30 21:17 | 38.35265 | 25.04263 | 36043 ft | 421 kts | 234° |
| 2026-04-30 21:18 | 38.31549 | 24.98542 | 36052 ft | 421 kts | 234° |
| 2026-04-30 21:18 | 38.27819 | 24.92795 | 36057 ft | 421 kts | 234° |
| 2026-04-30 21:19 | 38.24072 | 24.87070 | 35809 ft | 420 kts | 234° |
| 2026-04-30 21:19 | 38.22196 | 24.84210 | 35582 ft | 420 kts | 234° |
| 2026-04-30 21:19 | 38.20328 | 24.81355 | 35180 ft | 420 kts | 234° |
| 2026-04-30 21:20 | 38.18451 | 24.78479 | 34292 ft | 425 kts | 234° |
| 2026-04-30 21:20 | 38.16417 | 24.75733 | 33493 ft | 430 kts | 226° |
| 2026-04-30 21:20 | 38.14007 | 24.73395 | 32404 ft | 441 kts | 217° |
| 2026-04-30 21:20 | 38.11346 | 24.71380 | 31278 ft | 449 kts | 215° |
| 2026-04-30 21:21 | 38.08636 | 24.69357 | 30299 ft | 450 kts | 215° |
| 2026-04-30 21:21 | 38.05983 | 24.67387 | 29618 ft | 436 kts | 215° |
| 2026-04-30 21:21 | 38.00880 | 24.63589 | 28262 ft | 419 kts | 215° |
| 2026-04-30 21:22 | 37.98414 | 24.61736 | 27616 ft | 416 kts | 215° |
| 2026-04-30 21:22 | 37.91045 | 24.56179 | 25664 ft | 406 kts | 215° |
| 2026-04-30 21:23 | 37.88614 | 24.54360 | 25012 ft | 404 kts | 215° |
| 2026-04-30 21:23 | 37.86205 | 24.52560 | 24401 ft | 401 kts | 215° |
| 2026-04-30 21:23 | 37.81436 | 24.49003 | 23147 ft | 394 kts | 215° |
| 2026-04-30 21:24 | 37.79085 | 24.47245 | 22589 ft | 389 kts | 215° |
| 2026-04-30 21:24 | 37.76774 | 24.45518 | 22077 ft | 384 kts | 215° |
| 2026-04-30 21:24 | 37.74487 | 24.43817 | 21560 ft | 379 kts | 214° |
| 2026-04-30 21:24 | 37.72259 | 24.42159 | 21080 ft | 374 kts | 214° |
| 2026-04-30 21:25 | 37.67821 | 24.38847 | 20084 ft | 367 kts | 214° |
| 2026-04-30 21:25 | 37.65631 | 24.37218 | 19602 ft | 364 kts | 214° |
| 2026-04-30 21:25 | 37.63450 | 24.35597 | 19085 ft | 362 kts | 214° |
| 2026-04-30 21:26 | 37.59190 | 24.32277 | 18019 ft | 356 kts | 223° |
| 2026-04-30 21:26 | 37.57486 | 24.30062 | 17499 ft | 349 kts | 236° |
| 2026-04-30 21:27 | 37.55565 | 24.24607 | 16475 ft | 339 kts | 261° |
| 2026-04-30 21:27 | 37.55350 | 24.21656 | 15965 ft | 337 kts | 267° |
| 2026-04-30 21:27 | 37.55221 | 24.18719 | 15449 ft | 336 kts | 267° |
| 2026-04-30 21:28 | 37.54955 | 24.12851 | 14407 ft | 334 kts | 267° |
| 2026-04-30 21:28 | 37.54824 | 24.09974 | 13907 ft | 333 kts | 267° |
| 2026-04-30 21:28 | 37.54557 | 24.04187 | 12831 ft | 328 kts | 266° |
| 2026-04-30 21:29 | 37.54423 | 24.01328 | 12309 ft | 325 kts | 266° |
| 2026-04-30 21:29 | 37.54017 | 23.92863 | 10729 ft | 320 kts | 266° |
| 2026-04-30 21:30 | 37.53759 | 23.87453 | 10368 ft | 296 kts | 266° |
| 2026-04-30 21:31 | 37.53409 | 23.80086 | 9966 ft | 272 kts | 266° |
| 2026-04-30 21:31 | 37.54073 | 23.75657 | 9737 ft | 252 kts | 306° |
| 2026-04-30 21:32 | 37.57108 | 23.73875 | 8799 ft | 254 kts | 353° |
| 2026-04-30 21:32 | 37.58875 | 23.73744 | 8217 ft | 253 kts | 353° |
| 2026-04-30 21:32 | 37.60629 | 23.73619 | 7662 ft | 252 kts | 353° |
| 2026-04-30 21:32 | 37.61804 | 23.73533 | 7297 ft | 250 kts | 354° |
| 2026-04-30 21:33 | 37.64094 | 23.73362 | 6589 ft | 248 kts | 354° |
| 2026-04-30 21:33 | 37.66927 | 23.73145 | 5807 ft | 242 kts | 354° |
| 2026-04-30 21:33 | 37.68598 | 23.73016 | 5318 ft | 240 kts | 354° |
| 2026-04-30 21:34 | 37.70246 | 23.72909 | 4909 ft | 235 kts | 359° |
| 2026-04-30 21:34 | 37.73334 | 23.74116 | 4119 ft | 235 kts | 30° |
| 2026-04-30 21:34 | 37.74615 | 23.75265 | 4050 ft | 216 kts | 33° |
| 2026-04-30 21:35 | 37.75776 | 23.76372 | 3973 ft | 205 kts | 33° |
| 2026-04-30 21:35 | 37.76866 | 23.77406 | 3896 ft | 192 kts | 33° |
| 2026-04-30 21:35 | 37.77938 | 23.78419 | 3770 ft | 193 kts | 32° |
| 2026-04-30 21:35 | 37.79007 | 23.79429 | 3540 ft | 191 kts | 32° |
| 2026-04-30 21:36 | 37.80067 | 23.80431 | 3292 ft | 188 kts | 35° |
| 2026-04-30 21:36 | 37.81077 | 23.81388 | 3050 ft | 175 kts | 35° |
| 2026-04-30 21:37 | 37.83819 | 23.83984 | 2408 ft | 161 kts | 37° |
| 2026-04-30 21:37 | 37.84695 | 23.84814 | 2180 ft | 156 kts | 36° |
| 2026-04-30 21:37 | 37.85554 | 23.85627 | 1978 ft | 152 kts | 36° |
| 2026-04-30 21:37 | 37.86394 | 23.86424 | 1782 ft | 149 kts | 35° |
| 2026-04-30 21:38 | 37.87220 | 23.87206 | 1573 ft | 149 kts | 36° |
| 2026-04-30 21:38 | 37.88047 | 23.87991 | 1376 ft | 151 kts | 35° |
| 2026-04-30 21:38 | 37.88857 | 23.88760 | 1166 ft | 140 kts | 36° |
| 2026-04-30 21:38 | 37.89624 | 23.89491 | 1008 ft | 136 kts | 36° |
| 2026-04-30 21:39 | 37.90390 | 23.90214 | 803 ft | 137 kts | 38° |
| 2026-04-30 21:39 | 37.91145 | 23.90936 | 612 ft | 136 kts | 39° |
| 2026-04-30 21:39 | 37.91897 | 23.91657 | 425 ft | 135 kts | 39° |
| 2026-04-30 21:39 | 37.92643 | 23.92365 | 311 ft | 126 kts | 38° |
| 2026-04-30 21:40 | 37.93265 | 23.92951 | 291 ft | 89 kts | 37° |
| 2026-04-30 21:40 | 37.93623 | 23.93294 | 293 ft | 40 kts | 37° |
| 2026-04-30 21:40 | 37.93755 | 23.93420 | 293 ft | 20 kts | 37° |
| 2026-04-30 21:40 | 37.93858 | 23.93538 | 294 ft | 19 kts | 49° |
| 2026-04-30 21:41 | 37.93925 | 23.93678 | 300 ft | 17 kts | 64° |
| 2026-04-30 21:41 | 37.93951 | 23.93759 | 298 ft | 0 kts | 71° |
| 2026-04-30 21:41 | 37.93951 | 23.93760 | 298 ft | 1 kts | 72° |
| 2026-04-30 21:41 | 37.93946 | 23.93802 | 298 ft | 8 kts | 128° |
| 2026-04-30 21:42 | 37.93865 | 23.93800 | 301 ft | 17 kts | 217° |
| 2026-04-30 21:42 | 37.93773 | 23.93711 | 300 ft | 16 kts | 217° |
| 2026-04-30 21:42 | 37.93686 | 23.93629 | 299 ft | 15 kts | 217° |
| 2026-04-30 21:42 | 37.93604 | 23.93551 | 300 ft | 14 kts | 216° |
| 2026-04-30 21:43 | 37.93533 | 23.93501 | 299 ft | 11 kts | 182° |
| 2026-04-30 21:43 | 37.93479 | 23.93545 | 301 ft | 8 kts | 128° |
| 2026-04-30 21:43 | 37.93448 | 23.93599 | 302 ft | 7 kts | 126° |
| 2026-04-30 21:43 | 37.93424 | 23.93641 | 303 ft | 5 kts | 128° |
| 2026-04-30 21:44 | 37.93395 | 23.93687 | 303 ft | 10 kts | 128° |